Time;durP1;ratioP1;P1;durP2;ratioP2;P2;SDS_P1;SDS_P2;PMS_P1;PMS_P2;Temp;Humidity;BMP_temperature;BMP_pressure;BME280_temperature;BME280_humidity;BME280_pressure;Samples;Min_cycle;Max_cycle;Signal;HPM_P1;HPM_P2
2021/12/26 00:02:11;;;;;;;18.00;14.80;;;;;;;1.27;80.87;98619.84;4988917;28;20117;-76
2021/12/26 00:04:37;;;;;;;19.48;14.40;;;;;;;1.22;81.11;98619.97;4988349;28;20122;-76
2021/12/26 00:07:03;;;;;;;17.25;13.80;;;;;;;1.19;81.06;98614.88;4971121;28;20034;-74
2021/12/26 00:09:29;;;;;;;21.35;15.90;;;;;;;1.17;81.26;98611.47;4988631;28;20116;-76
2021/12/26 00:11:54;;;;;;;20.17;14.93;;;;;;;1.09;82.04;98604.84;4988885;28;20066;-76
2021/12/26 00:14:20;;;;;;;19.00;14.73;;;;;;;1.05;82.21;98606.66;4988677;28;20038;-76
2021/12/26 00:16:46;;;;;;;20.60;15.93;;;;;;;0.94;82.18;98608.75;4987180;28;20030;-76
2021/12/26 00:19:12;;;;;;;21.75;15.77;;;;;;;0.91;82.92;98614.88;4988694;28;20046;-76
2021/12/26 00:21:37;;;;;;;18.42;14.77;;;;;;;0.98;82.95;98611.19;4994841;28;20097;-75
2021/12/26 00:24:03;;;;;;;18.80;14.90;;;;;;;0.98;82.39;98608.56;5004521;28;20045;-76
2021/12/26 00:26:31;;;;;;;20.55;14.93;;;;;;;0.94;82.98;98609.59;4987552;28;20093;-75
2021/12/26 00:28:57;;;;;;;20.48;14.77;;;;;;;1.02;82.85;98609.34;4988303;28;20042;-77
2021/12/26 00:31:22;;;;;;;21.60;14.25;;;;;;;1.10;83.01;98602.19;4971328;28;20433;-76
2021/12/26 00:33:47;;;;;;;20.50;14.13;;;;;;;1.14;82.63;98602.97;4988485;28;20109;-76
2021/12/26 00:36:13;;;;;;;24.85;17.35;;;;;;;1.15;82.32;98605.47;4986573;28;20178;-76
2021/12/26 00:38:39;;;;;;;18.98;14.80;;;;;;;1.13;82.54;98598.66;4988472;28;20050;-76
2021/12/26 00:41:04;;;;;;;21.33;16.50;;;;;;;1.14;82.38;98596.00;4988733;28;20041;-76
2021/12/26 00:43:29;;;;;;;19.23;13.57;;;;;;;1.16;82.04;98602.00;4971281;28;20053;-76
2021/12/26 00:45:55;;;;;;;26.73;17.35;;;;;;;1.21;82.17;98604.47;4986599;28;20037;-76
2021/12/26 00:48:21;;;;;;;20.58;15.30;;;;;;;1.18;82.00;98601.94;4988627;28;20445;-75
2021/12/26 00:50:47;;;;;;;19.35;14.52;;;;;;;1.20;82.39;98597.56;4988522;28;20037;-76
2021/12/26 00:53:13;;;;;;;21.23;14.25;;;;;;;1.11;82.58;98600.44;4988255;28;20038;-76
2021/12/26 00:55:39;;;;;;;22.63;15.25;;;;;;;1.18;82.62;98599.34;4987844;28;20035;-77
2021/12/26 00:58:05;;;;;;;20.33;15.48;;;;;;;1.24;83.00;98599.19;4987120;28;20058;-77
2021/12/26 01:00:34;;;;;;;18.13;13.35;;;;;;;1.32;82.68;98601.53;4988217;28;20130;-77
2021/12/26 01:03:02;;;;;;;20.92;15.15;;;;;;;1.28;81.79;98599.03;4990531;28;20049;-77
2021/12/26 01:05:28;;;;;;;20.70;15.40;;;;;;;1.28;82.30;98595.59;4990268;28;20405;-77
2021/12/26 01:07:59;;;;;;;19.77;15.30;;;;;;;1.34;82.10;98597.16;4974928;28;20110;-77
2021/12/26 01:10:38;;;;;;;19.70;14.93;;;;;;;1.34;81.56;98592.81;4991308;28;20038;-77
2021/12/26 01:13:15;;;;;;;24.27;17.48;;;;;;;1.33;81.13;98595.44;4991440;28;20121;-77
2021/12/26 01:15:43;;;;;;;21.38;16.42;;;;;;;1.29;81.60;98595.53;4975158;28;20038;-76
2021/12/26 01:18:09;;;;;;;20.77;17.13;;;;;;;1.29;81.85;98584.31;4991299;28;20039;-75
2021/12/26 01:20:43;;;;;;;22.38;17.63;;;;;;;1.28;81.62;98593.00;4991122;28;20036;-74
2021/12/26 01:23:11;;;;;;;24.25;16.58;;;;;;;1.25;82.35;98591.31;4990801;28;20693;-74
2021/12/26 01:25:37;;;;;;;20.58;15.55;;;;;;;1.31;81.92;98589.47;4990630;28;20118;-73
2021/12/26 01:28:04;;;;;;;25.20;19.67;;;;;;;1.28;81.72;98593.00;4991223;28;20188;-74
2021/12/26 01:30:29;;;;;;;27.05;20.45;;;;;;;1.23;81.51;98594.88;4991223;28;20049;-74
2021/12/26 01:32:55;;;;;;;20.52;15.10;;;;;;;1.13;82.52;98588.25;4990850;28;20155;-74
2021/12/26 01:35:21;;;;;;;27.65;20.20;;;;;;;1.20;82.07;98598.41;4990926;28;20049;-74
2021/12/26 01:37:47;;;;;;;21.73;15.63;;;;;;;1.27;82.65;98586.94;4991289;28;20069;-74
2021/12/26 01:40:12;;;;;;;20.70;15.13;;;;;;;1.37;82.12;98590.09;4973526;28;20058;-74
2021/12/26 01:42:38;;;;;;;23.63;17.00;;;;;;;1.42;81.57;98596.00;4991325;28;20121;-74
2021/12/26 01:45:07;;;;;;;26.58;18.25;;;;;;;1.40;81.22;98587.41;4991954;28;20069;-74
2021/12/26 01:47:33;;;;;;;18.02;13.75;;;;;;;1.42;81.19;98587.38;4991867;28;20026;-75
2021/12/26 01:49:58;;;;;;;20.35;15.30;;;;;;;1.44;80.72;98586.41;4990567;28;20379;-75
2021/12/26 01:52:23;;;;;;;23.20;16.85;;;;;;;1.40;81.00;98590.00;4973590;28;20046;-76
2021/12/26 01:55:00;;;;;;;26.23;18.08;;;;;;;1.35;80.92;98586.69;4990026;28;20038;-76
2021/12/26 01:57:25;;;;;;;20.42;14.55;;;;;;;1.38;81.01;98590.94;4991279;28;20094;-74
2021/12/26 01:59:51;;;;;;;20.70;15.73;;;;;;;1.43;81.12;98587.31;4979945;28;20489;-77
2021/12/26 02:02:16;;;;;;;19.00;14.18;;;;;;;1.48;80.51;98592.38;4959793;28;20037;-76
2021/12/26 02:04:43;;;;;;;18.83;13.05;;;;;;;1.44;80.98;98590.78;4992926;28;20026;-74
2021/12/26 02:07:11;;;;;;;19.20;13.65;;;;;;;1.46;80.42;98594.16;4972842;28;20047;-76
2021/12/26 02:09:37;;;;;;;21.27;14.80;;;;;;;1.51;80.59;98584.47;4991974;28;20526;-75
2021/12/26 02:12:03;;;;;;;18.80;13.38;;;;;;;1.56;81.09;98594.72;4991988;28;20066;-75
2021/12/26 02:14:28;;;;;;;18.98;13.80;;;;;;;1.59;80.47;98586.84;4990611;28;20030;-74
2021/12/26 02:16:54;;;;;;;20.10;13.52;;;;;;;1.65;80.18;98586.63;4991125;28;20034;-76
2021/12/26 02:19:20;;;;;;;21.45;16.08;;;;;;;1.63;80.13;98588.44;4957251;28;20088;-77
2021/12/26 02:22:04;;;;;;;20.58;13.80;;;;;;;1.67;79.90;98579.63;4990290;28;20502;-75
2021/12/26 02:25:07;;;;;;;19.83;14.85;;;;;;;1.65;79.46;98581.44;4989786;28;20039;-75
2021/12/26 02:27:31;;;;;;;17.75;12.80;;;;;;;1.68;80.11;98584.78;4989618;28;20494;-74
2021/12/26 02:30:08;;;;;;;21.52;16.33;;;;;;;1.62;79.66;98582.38;4973327;28;20030;-75
2021/12/26 02:32:34;;;;;;;18.23;13.30;;;;;;;1.65;80.00;98586.63;4990344;28;20042;-74
2021/12/26 02:35:01;;;;;;;21.08;15.25;;;;;;;1.59;80.27;98586.84;4989736;28;20517;-76
2021/12/26 02:37:27;;;;;;;17.88;12.88;;;;;;;1.61;80.06;98582.44;4990421;28;20410;-76
2021/12/26 02:39:53;;;;;;;18.23;13.20;;;;;;;1.66;80.09;98593.53;4991659;28;20035;-77
2021/12/26 02:42:21;;;;;;;23.10;17.48;;;;;;;1.57;80.04;98583.44;4992625;28;20518;-76
2021/12/26 02:44:46;;;;;;;22.77;14.25;;;;;;;1.47;80.75;98586.31;4993742;28;20049;-75
2021/12/26 02:47:12;;;;;;;21.75;15.60;;;;;;;1.55;80.58;98574.84;5000449;28;20062;-75
2021/12/26 02:49:37;;;;;;;25.83;18.35;;;;;;;1.50;80.00;98577.56;5001882;28;20027;-75
2021/12/26 02:52:03;;;;;;;22.38;14.75;;;;;;;1.48;80.78;98577.66;4996664;28;20043;-77
2021/12/26 02:54:28;;;;;;;19.40;14.30;;;;;;;1.59;81.18;98579.03;4991951;28;20061;-76
2021/12/26 02:56:54;;;;;;;24.17;17.38;;;;;;;1.64;79.67;98572.78;4991226;28;20042;-76
2021/12/26 02:59:20;;;;;;;17.65;12.80;;;;;;;1.65;80.23;98573.63;4991305;28;20038;-76
2021/12/26 03:01:45;;;;;;;20.48;14.43;;;;;;;1.68;79.77;98578.75;4991067;28;20042;-76
2021/12/26 03:04:11;;;;;;;18.92;13.95;;;;;;;1.65;80.47;98571.91;4973776;28;20034;-76
2021/12/26 03:06:45;;;;;;;17.42;12.90;;;;;;;1.66;80.03;98563.19;4990616;28;20048;-76
2021/12/26 03:09:11;;;;;;;21.60;16.60;;;;;;;1.62;80.21;98561.59;4993413;28;20054;-77
2021/12/26 03:11:38;;;;;;;17.80;13.85;;;;;;;1.64;80.65;98552.00;4996495;28;20137;-77
2021/12/26 03:14:04;;;;;;;18.35;14.02;;;;;;;1.71;80.44;98561.31;5002693;28;20019;-77
2021/12/26 03:16:30;;;;;;;17.85;13.23;;;;;;;1.78;80.21;98561.97;5006286;28;20030;-77
2021/12/26 03:18:57;;;;;;;15.38;12.98;;;;;;;1.82;79.76;98549.69;5003085;28;20087;-75
2021/12/26 03:21:22;;;;;;;18.77;13.93;;;;;;;1.85;79.67;98547.00;4992736;28;20023;-75
2021/12/26 03:23:48;;;;;;;18.67;14.25;;;;;;;1.73;80.27;98545.66;4974587;28;20037;-76
2021/12/26 03:26:13;;;;;;;19.50;14.63;;;;;;;1.73;80.09;98547.44;4988436;28;20034;-77
2021/12/26 03:28:39;;;;;;;18.00;13.57;;;;;;;1.75;80.16;98556.88;4989343;28;20034;-75
2021/12/26 03:31:04;;;;;;;18.90;13.60;;;;;;;1.73;80.57;98576.84;4988412;28;20049;-75
2021/12/26 03:33:30;;;;;;;23.92;16.42;;;;;;;1.76;80.25;98571.53;4989129;28;20505;-75
2021/12/26 03:35:56;;;;;;;22.40;16.45;;;;;;;1.73;80.98;98558.66;4971903;28;20065;-76
2021/12/26 03:38:23;;;;;;;18.00;14.40;;;;;;;1.78;80.71;98561.97;4971431;28;20034;-75
2021/12/26 03:40:51;;;;;;;24.27;16.88;;;;;;;1.79;80.17;98555.84;4971475;28;20034;-76
2021/12/26 03:43:16;;;;;;;24.98;17.55;;;;;;;1.82;79.87;98568.75;4986740;28;20719;-76
2021/12/26 03:45:43;;;;;;;20.10;14.00;;;;;;;1.80;80.36;98556.72;4988306;28;20039;-76
2021/12/26 03:48:09;;;;;;;21.65;16.00;;;;;;;1.81;80.24;98555.81;4971768;28;20186;-75
2021/12/26 03:50:39;;;;;;;17.42;12.88;;;;;;;1.86;80.16;98565.13;4971645;28;20109;-76
2021/12/26 03:53:04;;;;;;;18.02;14.15;;;;;;;1.90;80.18;98552.91;4971036;28;20063;-75
2021/12/26 03:55:30;;;;;;;20.88;15.70;;;;;;;1.94;80.25;98541.47;4988037;28;20568;-76
2021/12/26 03:57:55;;;;;;;21.33;16.92;;;;;;;1.94;79.55;98549.28;4971868;28;20045;-76
2021/12/26 04:00:24;;;;;;;19.80;16.50;;;;;;;1.94;79.99;98546.69;4988448;28;20479;-76
2021/12/26 04:02:49;;;;;;;16.45;12.93;;;;;;;1.95;80.64;98545.78;4988994;28;20038;-77
2021/12/26 04:05:15;;;;;;;20.85;15.48;;;;;;;2.01;79.97;98544.72;4988348;28;20042;-76
2021/12/26 04:07:42;;;;;;;19.13;14.05;;;;;;;1.97;80.19;98541.41;4988526;28;20108;-75
2021/12/26 04:10:09;;;;;;;18.40;14.20;;;;;;;2.01;80.22;98544.72;4988646;28;20121;-76
2021/12/26 04:12:42;;;;;;;16.63;12.57;;;;;;;2.03;79.79;98546.38;4971104;28;20046;-75
2021/12/26 04:15:10;;;;;;;19.88;15.10;;;;;;;2.05;79.66;98543.72;4988139;28;20101;-76
2021/12/26 04:17:36;;;;;;;19.77;15.13;;;;;;;2.03;79.80;98541.16;4988360;28;20088;-75
2021/12/26 04:20:05;;;;;;;23.50;17.17;;;;;;;2.01;79.98;98536.94;4987698;28;20047;-75
2021/12/26 04:22:30;;;;;;;18.15;13.23;;;;;;;2.00;79.55;98537.84;4988713;28;20064;-77
2021/12/26 04:24:57;;;;;;;18.55;14.20;;;;;;;1.89;80.85;98544.22;4988097;28;20037;-76
2021/12/26 04:27:24;;;;;;;17.35;12.88;;;;;;;1.96;80.27;98536.25;4988245;28;20034;-76
2021/12/26 04:29:50;;;;;;;20.92;15.15;;;;;;;1.95;80.08;98540.59;4987039;28;20048;-76
2021/12/26 04:32:15;;;;;;;19.00;13.98;;;;;;;1.99;80.38;98539.56;4988634;28;20042;-76
2021/12/26 04:34:41;;;;;;;19.45;13.38;;;;;;;2.02;79.85;98536.00;4988456;28;20450;-76
2021/12/26 04:37:06;;;;;;;17.60;13.85;;;;;;;2.06;79.81;98542.81;4988755;28;20042;-76
2021/12/26 04:39:31;;;;;;;24.15;16.40;;;;;;;2.02;79.93;98544.69;4992388;28;20406;-76
2021/12/26 04:41:57;;;;;;;22.98;17.60;;;;;;;2.02;80.05;98538.63;4992806;28;20030;-76
2021/12/26 04:44:24;;;;;;;19.52;14.35;;;;;;;2.05;80.49;98543.72;4993767;28;20035;-77
2021/12/26 04:46:50;;;;;;;23.58;15.38;;;;;;;2.01;80.03;98542.13;4991956;28;20030;-76
2021/12/26 04:49:15;;;;;;;27.02;17.35;;;;;;;2.06;80.22;98546.25;4992073;28;20053;-77
2021/12/26 04:51:41;;;;;;;20.95;16.92;;;;;;;2.02;80.36;98542.09;4992264;28;20058;-77
2021/12/26 04:54:07;;;;;;;18.63;14.07;;;;;;;1.99;80.82;98544.78;4992309;28;20100;-77
2021/12/26 04:56:32;;;;;;;22.80;14.93;;;;;;;2.04;80.82;98542.00;4975641;28;20430;-77
2021/12/26 04:58:59;;;;;;;21.40;15.10;;;;;;;2.03;80.50;98550.72;4996430;28;20049;-75
2021/12/26 05:01:24;;;;;;;18.98;15.30;;;;;;;2.04;80.09;98550.66;4996176;28;20055;-76
2021/12/26 05:03:50;;;;;;;19.77;15.05;;;;;;;2.11;80.96;98548.69;4997033;28;20038;-76
2021/12/26 05:06:15;;;;;;;18.35;14.40;;;;;;;2.12;80.00;98550.41;4996781;28;20054;-75
2021/12/26 05:08:40;;;;;;;20.33;14.73;;;;;;;2.09;80.12;98533.19;4996998;28;20541;-76
2021/12/26 05:11:06;;;;;;;25.83;15.35;;;;;;;2.11;80.90;98539.16;4991432;28;20151;-76
2021/12/26 05:13:31;;;;;;;20.02;16.23;;;;;;;2.07;80.33;98534.13;4991266;28;20034;-75
2021/12/26 05:15:57;;;;;;;24.05;16.05;;;;;;;2.03;80.03;98532.53;4991197;28;20045;-76
2021/12/26 05:18:22;;;;;;;20.77;14.48;;;;;;;1.99;81.05;98530.94;4991357;28;20054;-76
2021/12/26 05:20:47;;;;;;;17.77;14.07;;;;;;;1.93;81.11;98526.81;4990855;28;20050;-76
2021/12/26 05:23:13;;;;;;;19.45;14.23;;;;;;;1.95;81.23;98524.16;4991097;28;20387;-77
2021/12/26 05:25:38;;;;;;;19.15;14.32;;;;;;;2.01;80.80;98521.34;4997660;28;20058;-77
2021/12/26 05:28:04;;;;;;;19.92;15.13;;;;;;;2.02;80.58;98516.09;5003195;28;20039;-76
2021/12/26 05:30:29;;;;;;;16.95;13.93;;;;;;;2.05;80.34;98528.13;5003474;28;20037;-76
2021/12/26 05:32:55;;;;;;;19.17;13.13;;;;;;;2.05;80.68;98521.19;5001516;28;20065;-76
2021/12/26 05:35:21;;;;;;;16.63;13.02;;;;;;;2.11;80.82;98527.91;5003658;28;20066;-76
2021/12/26 05:37:47;;;;;;;21.63;15.43;;;;;;;2.09;80.36;98527.97;5006093;28;20038;-76
2021/12/26 05:40:14;;;;;;;33.85;15.75;;;;;;;2.09;80.34;98521.91;5001381;28;20069;-76
2021/12/26 05:42:40;;;;;;;23.75;17.02;;;;;;;2.09;80.22;98520.19;5002744;28;20031;-76
2021/12/26 05:45:08;;;;;;;18.83;13.98;;;;;;;2.10;81.07;98527.06;5004194;28;20042;-76
2021/12/26 05:47:33;;;;;;;20.33;14.85;;;;;;;2.10;80.66;98523.63;5004137;28;20053;-76
2021/12/26 05:50:00;;;;;;;23.23;16.98;;;;;;;2.09;80.48;98522.78;4986137;28;20046;-76
2021/12/26 05:52:26;;;;;;;18.60;14.45;;;;;;;2.15;80.68;98522.53;4995522;28;20096;-75
2021/12/26 05:54:51;;;;;;;25.30;18.00;;;;;;;2.15;80.68;98519.09;4990818;28;20391;-77
2021/12/26 05:57:17;;;;;;;26.83;14.85;;;;;;;2.15;81.19;98516.50;4990541;28;20100;-76
2021/12/26 05:59:43;;;;;;;22.25;14.82;;;;;;;2.18;81.15;98520.75;4990814;28;20058;-76
2021/12/26 06:02:09;;;;;;;26.55;17.48;;;;;;;2.19;81.37;98514.63;4990549;28;20053;-76
2021/12/26 06:04:34;;;;;;;21.77;17.35;;;;;;;2.24;81.02;98510.97;4990531;28;20034;-76
2021/12/26 06:07:00;;;;;;;20.92;15.15;;;;;;;2.24;80.92;98510.97;4973175;28;20054;-76
2021/12/26 06:09:26;;;;;;;23.88;14.05;;;;;;;2.30;80.71;98513.34;4990841;28;20137;-76
2021/12/26 06:11:51;;;;;;;22.65;15.60;;;;;;;2.31;80.63;98520.25;4990295;28;20057;-76
2021/12/26 06:14:16;;;;;;;22.80;16.50;;;;;;;2.34;79.98;98514.94;4990618;28;20068;-76
2021/12/26 06:16:42;;;;;;;22.02;13.98;;;;;;;2.36;80.30;98510.53;4990384;28;20046;-76
2021/12/26 06:19:08;;;;;;;19.40;15.02;;;;;;;2.34;80.47;98520.16;4991114;28;20436;-76
2021/12/26 06:21:33;;;;;;;20.27;14.85;;;;;;;2.33;80.42;98515.84;4973273;28;20113;-76
2021/12/26 06:23:59;;;;;;;17.70;14.13;;;;;;;2.36;80.64;98520.06;4992860;28;20054;-74
2021/12/26 06:26:26;;;;;;;26.00;19.77;;;;;;;2.30;80.31;98507.31;4991535;28;20048;-74
2021/12/26 06:28:52;;;;;;;23.63;15.63;;;;;;;2.25;80.92;98511.81;4992755;28;20042;-74
2021/12/26 06:31:18;;;;;;;21.85;16.58;;;;;;;2.28;80.96;98514.31;4991886;28;20061;-74
2021/12/26 06:33:46;;;;;;;19.40;14.55;;;;;;;2.34;80.92;98508.91;4991862;28;20494;-75
2021/12/26 06:36:12;;;;;;;21.23;16.80;;;;;;;2.39;80.63;98512.19;4974112;28;20061;-75
2021/12/26 06:38:38;;;;;;;20.63;16.10;;;;;;;2.44;80.97;98509.41;4992306;28;20038;-75
2021/12/26 06:41:05;;;;;;;17.88;14.32;;;;;;;2.46;80.99;98508.44;4973640;28;20088;-76
2021/12/26 06:43:31;;;;;;;17.80;13.93;;;;;;;2.51;80.37;98503.06;4993170;28;20035;-76
2021/12/26 06:45:57;;;;;;;21.80;15.88;;;;;;;2.48;80.16;98503.16;5000261;28;20034;-74
2021/12/26 06:48:23;;;;;;;19.35;13.25;;;;;;;2.45;80.05;98505.91;5009602;28;20030;-74
2021/12/26 06:50:50;;;;;;;21.80;15.45;;;;;;;2.46;80.03;98507.56;5002381;28;20044;-74
2021/12/26 06:53:17;;;;;;;19.73;14.50;;;;;;;2.49;79.83;98504.88;4994060;28;20039;-75
2021/12/26 06:55:44;;;;;;;19.75;13.25;;;;;;;2.49;80.34;98510.09;4989877;28;20041;-76
2021/12/26 06:58:09;;;;;;;18.60;13.60;;;;;;;2.52;80.03;98508.22;4992548;28;20066;-75
2021/12/26 07:00:34;;;;;;;16.88;12.35;;;;;;;2.58;80.45;98500.19;4992636;28;20449;-76
2021/12/26 07:03:02;;;;;;;17.88;13.10;;;;;;;2.59;79.59;98508.84;4990771;28;20034;-76
2021/12/26 07:05:28;;;;;;;17.63;13.27;;;;;;;2.51;80.11;98506.53;4991593;28;20065;-76
2021/12/26 07:07:53;;;;;;;21.60;16.88;;;;;;;2.53;80.09;98507.28;4990907;28;20038;-76
2021/12/26 07:10:18;;;;;;;20.85;15.35;;;;;;;2.53;80.31;98503.84;4991654;28;20506;-76
2021/12/26 07:12:44;;;;;;;20.25;15.70;;;;;;;2.51;80.17;98511.72;4994117;28;20046;-76
2021/12/26 07:15:11;;;;;;;26.83;16.67;;;;;;;2.47;80.34;98520.53;4997596;28;20046;-76
2021/12/26 07:17:37;;;;;;;20.27;14.40;;;;;;;2.45;80.84;98511.09;5004888;28;20042;-75
2021/12/26 07:20:03;;;;;;;20.35;13.45;;;;;;;2.48;80.92;98506.63;4983093;28;20045;-76
2021/12/26 07:22:28;;;;;;;17.55;12.70;;;;;;;2.54;80.98;98500.38;4973993;28;20030;-76
2021/12/26 07:24:54;;;;;;;20.65;13.35;;;;;;;2.60;80.33;98510.53;4988713;28;20085;-76
2021/12/26 07:27:19;;;;;;;21.48;16.40;;;;;;;2.56;80.58;98511.56;4989229;28;20089;-76
2021/12/26 07:29:45;;;;;;;22.27;17.02;;;;;;;2.58;81.03;98512.31;4988798;28;20433;-76
2021/12/26 07:32:11;;;;;;;20.10;14.35;;;;;;;2.54;80.53;98515.97;4988641;28;20105;-76
2021/12/26 07:34:37;;;;;;;21.35;15.70;;;;;;;2.51;80.62;98509.13;4988761;28;20053;-76
2021/12/26 07:37:03;;;;;;;25.20;18.38;;;;;;;2.54;80.99;98511.59;4989129;28;20042;-76
2021/12/26 07:39:28;;;;;;;16.50;12.90;;;;;;;2.60;80.94;98514.88;4989148;28;20089;-76
2021/12/26 07:41:54;;;;;;;21.88;16.60;;;;;;;2.61;80.61;98506.16;4988912;28;20039;-76
2021/12/26 07:44:19;;;;;;;19.95;16.30;;;;;;;2.53;81.28;98514.25;4986571;28;20034;-76
2021/12/26 07:46:45;;;;;;;22.63;16.00;;;;;;;2.59;81.16;98514.03;4988508;28;20038;-76
2021/12/26 07:49:10;;;;;;;27.63;19.83;;;;;;;2.60;80.71;98510.53;4988997;28;20121;-76
2021/12/26 07:51:36;;;;;;;22.63;16.23;;;;;;;2.57;81.19;98508.03;4988970;28;20498;-77
2021/12/26 07:54:01;;;;;;;16.65;14.23;;;;;;;2.60;81.68;98509.69;4989196;28;20046;-76
2021/12/26 07:56:28;;;;;;;18.98;15.57;;;;;;;2.66;80.79;98512.91;4988446;28;20038;-77
2021/12/26 07:58:54;;;;;;;18.73;14.88;;;;;;;2.71;80.86;98512.75;4989255;28;20027;-77
2021/12/26 08:01:19;;;;;;;20.67;16.50;;;;;;;2.74;80.96;98513.47;4970758;28;20049;-77
2021/12/26 08:03:45;;;;;;;18.92;14.23;;;;;;;2.79;80.55;98515.88;4988768;28;20487;-76
2021/12/26 08:06:16;;;;;;;21.05;15.20;;;;;;;2.85;80.69;98515.63;4971151;28;20042;-76
2021/12/26 08:08:42;;;;;;;17.90;14.45;;;;;;;2.91;80.41;98519.78;4972957;28;20513;-76
2021/12/26 08:11:07;;;;;;;21.10;13.82;;;;;;;2.91;80.11;98517.19;4971244;28;20034;-77
2021/12/26 08:13:33;;;;;;;20.33;13.65;;;;;;;2.90;80.10;98525.88;4992764;28;20034;-77
2021/12/26 08:15:58;;;;;;;17.75;13.07;;;;;;;2.93;80.09;98529.22;4992091;28;20050;-75
2021/12/26 08:18:23;;;;;;;15.02;11.95;;;;;;;2.95;79.96;98524.81;4975680;28;20038;-76
2021/12/26 08:20:49;;;;;;;21.40;16.63;;;;;;;2.91;78.85;98525.00;4992879;28;20061;-76
2021/12/26 08:23:14;;;;;;;20.65;15.25;;;;;;;2.83;79.44;98524.41;4994149;28;20037;-75
2021/12/26 08:25:40;;;;;;;22.80;15.07;;;;;;;2.77;80.20;98525.50;4975261;28;20131;-75
2021/12/26 08:28:05;;;;;;;21.77;14.13;;;;;;;2.79;79.98;98529.75;4996362;28;20053;-74
2021/12/26 08:30:30;;;;;;;19.60;15.13;;;;;;;2.81;79.94;98529.69;4999060;28;20030;-74
2021/12/26 08:32:59;;;;;;;18.65;13.48;;;;;;;2.89;80.03;98525.03;4994946;28;20043;-75
2021/12/26 08:35:25;;;;;;;18.13;12.98;;;;;;;2.96;79.92;98525.66;5000336;28;20054;-75
2021/12/26 08:37:51;;;;;;;25.48;16.10;;;;;;;2.96;79.47;98529.09;5002128;28;20031;-75
2021/12/26 08:40:17;;;;;;;22.13;14.43;;;;;;;2.89;79.52;98524.19;5001847;28;20050;-75
2021/12/26 08:42:42;;;;;;;19.67;14.98;;;;;;;2.84;80.62;98513.13;4993917;28;20597;-76
2021/12/26 08:45:09;;;;;;;23.02;16.25;;;;;;;2.88;80.53;98518.16;4991877;28;20069;-76
2021/12/26 08:47:34;;;;;;;24.17;15.95;;;;;;;2.95;80.03;98516.13;4992612;28;20045;-75
2021/12/26 08:49:59;;;;;;;19.50;14.25;;;;;;;2.98;79.84;98511.69;4992134;28;20038;-75
2021/12/26 08:52:25;;;;;;;23.15;15.60;;;;;;;3.04;79.96;98518.38;4974911;28;20045;-75
2021/12/26 08:54:50;;;;;;;18.20;13.90;;;;;;;3.14;79.69;98526.69;4991639;28;20486;-74
2021/12/26 08:57:16;;;;;;;23.05;15.43;;;;;;;3.14;79.54;98517.13;4992211;28;20031;-75
2021/12/26 08:59:42;;;;;;;20.08;14.43;;;;;;;3.18;79.36;98515.25;4992110;28;20396;-76
2021/12/26 09:02:08;;;;;;;21.98;14.43;;;;;;;3.25;79.75;98515.84;4991970;28;20039;-76
2021/12/26 09:04:35;;;;;;;24.67;16.52;;;;;;;3.27;79.07;98514.03;4974565;28;20038;-76
2021/12/26 09:07:01;;;;;;;22.63;16.17;;;;;;;3.30;78.98;98519.09;4991426;28;20030;-74
2021/12/26 09:09:28;;;;;;;21.88;13.00;;;;;;;3.39;79.33;98514.38;4991196;28;20042;-78
2021/12/26 09:11:54;;;;;;;21.50;16.88;;;;;;;3.43;78.36;98525.53;4992756;28;20039;-76
2021/12/26 09:14:20;;;;;;;22.52;16.08;;;;;;;3.46;78.77;98514.97;4991678;28;20037;-76
2021/12/26 09:16:45;;;;;;;20.50;14.23;;;;;;;3.56;78.37;98520.66;4991550;28;20037;-77
2021/12/26 09:19:10;;;;;;;21.48;16.60;;;;;;;3.65;78.78;98515.91;4990010;28;20541;-76
2021/12/26 09:21:36;;;;;;;21.35;14.57;;;;;;;3.73;78.31;98520.81;4992402;28;20197;-75
2021/12/26 09:24:04;;;;;;;21.08;16.27;;;;;;;3.80;78.00;98522.25;4988096;28;20080;-76
2021/12/26 09:26:29;;;;;;;25.42;16.60;;;;;;;3.85;77.60;98524.66;4988206;28;20572;-78
2021/12/26 09:28:54;;;;;;;22.48;16.40;;;;;;;3.76;78.12;98519.81;4989280;28;20026;-76
2021/12/26 09:31:20;;;;;;;18.33;14.32;;;;;;;3.80;78.80;98532.66;4989302;28;20117;-75
2021/12/26 09:33:45;;;;;;;22.85;16.90;;;;;;;3.75;78.04;98523.34;4988884;28;20034;-76
2021/12/26 09:36:10;;;;;;;26.60;19.00;;;;;;;3.81;78.62;98523.09;4988734;28;20031;-76
2021/12/26 09:38:36;;;;;;;22.35;17.05;;;;;;;3.90;78.66;98525.31;4972421;28;20030;-74
2021/12/26 09:41:02;;;;;;;23.25;16.70;;;;;;;3.97;77.97;98529.34;4989110;28;20073;-75
2021/12/26 09:43:27;;;;;;;22.42;15.57;;;;;;;4.05;77.58;98523.81;4988778;28;20087;-75
2021/12/26 09:45:53;;;;;;;24.02;16.50;;;;;;;4.08;77.81;98526.28;4988349;28;20034;-75
2021/12/26 09:48:19;;;;;;;23.38;16.40;;;;;;;4.06;77.78;98526.38;4989432;28;20513;-75
2021/12/26 09:50:46;;;;;;;21.77;15.40;;;;;;;4.12;77.65;98524.41;4988934;28;20072;-76
2021/12/26 09:53:12;;;;;;;22.35;16.08;;;;;;;4.15;76.88;98526.88;4988406;28;20097;-74
2021/12/26 09:55:38;;;;;;;21.63;15.00;;;;;;;4.14;77.56;98526.03;4987462;28;20042;-76
2021/12/26 09:58:03;;;;;;;23.30;17.58;;;;;;;4.18;77.80;98524.97;4988081;28;20046;-77
2021/12/26 10:00:36;;;;;;;26.25;18.00;;;;;;;4.08;77.76;98516.69;4988966;28;20042;-76
2021/12/26 10:03:34;;;;;;;41.05;22.88;;;;;;;3.97;78.82;98515.47;4989095;28;20050;-77
2021/12/26 10:06:13;;;;;;;41.60;25.88;;;;;;;4.00;79.03;98512.72;4976684;28;21565;-77
2021/12/26 10:08:53;;;;;;;32.72;19.52;;;;;;;4.16;78.59;98515.50;4989513;28;20443;-76
2021/12/26 10:11:19;;;;;;;29.65;21.08;;;;;;;4.23;78.50;98514.34;4989051;28;20096;-77
2021/12/26 10:14:09;;;;;;;23.63;16.13;;;;;;;4.28;78.42;98508.03;4988583;28;20062;-77
2021/12/26 10:16:41;;;;;;;24.58;15.85;;;;;;;4.29;78.11;98503.66;4982834;28;20537;-75
2021/12/26 10:19:07;;;;;;;29.80;18.85;;;;;;;4.30;78.14;98497.50;4986786;28;20030;-76
2021/12/26 10:21:40;;;;;;;27.05;18.67;;;;;;;4.36;77.81;98499.84;4987657;28;20452;-77
2021/12/26 10:24:26;;;;;;;26.80;17.35;;;;;;;4.41;77.63;98484.84;4988843;28;20034;-77
2021/12/26 10:27:04;;;;;;;21.23;16.02;;;;;;;4.45;77.20;98481.16;4987746;28;20034;-76
2021/12/26 10:29:33;;;;;;;22.17;16.25;;;;;;;4.49;76.91;98474.88;4987656;28;20088;-77
2021/12/26 10:32:13;;;;;;;23.58;16.48;;;;;;;4.48;77.69;98472.38;4988885;28;20054;-77
2021/12/26 10:34:43;;;;;;;26.65;20.67;;;;;;;4.33;77.55;98470.41;4987495;28;20035;-78
2021/12/26 10:37:13;;;;;;;27.05;18.58;;;;;;;4.25;78.12;98463.78;4970947;28;20062;-77
2021/12/26 10:39:49;;;;;;;25.67;19.60;;;;;;;4.36;78.65;98463.31;4987712;28;20505;-77
2021/12/26 10:42:17;;;;;;;;;;;;;;;4.47;78.54;98466.28;4971950;28;20787;-75
2021/12/26 10:44:44;;;;;;;26.27;17.30;;;;;;;4.45;77.68;98465.50;4990431;28;19913;-77
2021/12/26 10:47:16;;;;;;;28.38;20.27;;;;;;;4.33;77.89;98458.22;4992176;28;20042;-76
2021/12/26 10:50:12;;;;;;;31.58;21.25;;;;;;;4.30;79.22;98455.75;5002773;28;20045;-77
2021/12/26 10:52:42;;;;;;;22.50;16.15;;;;;;;4.43;78.78;98456.91;4984189;28;20057;-76
2021/12/26 10:55:13;;;;;;;21.25;14.98;;;;;;;4.56;78.29;98457.19;4988593;28;20113;-74
2021/12/26 10:57:44;;;;;;;28.15;19.00;;;;;;;4.62;77.63;98448.22;4971483;28;20124;-77
2021/12/26 11:00:22;;;;;;;23.80;17.85;;;;;;;4.68;78.18;98455.78;4985961;28;20069;-76
2021/12/26 11:03:00;;;;;;;21.42;15.82;;;;;;;4.73;77.94;98451.19;4970001;28;20041;-76
2021/12/26 11:05:39;;;;;;;31.25;18.75;;;;;;;4.81;77.48;98443.81;4988035;28;20038;-76
2021/12/26 11:08:06;;;;;;;26.27;16.83;;;;;;;4.78;77.39;98437.91;4988600;28;20031;-76
2021/12/26 11:10:34;;;;;;;22.20;16.17;;;;;;;4.86;77.76;98433.16;4988636;28;20045;-76
2021/12/26 11:13:03;;;;;;;24.55;17.00;;;;;;;4.91;77.52;98439.00;4994899;28;20062;-77
2021/12/26 11:15:32;;;;;;;28.25;20.95;;;;;;;4.95;76.79;98430.13;4995101;28;20569;-76
2021/12/26 11:18:00;;;;;;;18.20;13.93;;;;;;;4.97;78.03;98432.66;5001010;28;20058;-74
2021/12/26 11:20:27;;;;;;;23.42;16.42;;;;;;;5.03;77.30;98433.19;4998855;28;20414;-73
2021/12/26 11:22:53;;;;;;;18.98;14.18;;;;;;;5.12;77.34;98437.16;4992494;28;20040;-76
2021/12/26 11:25:19;;;;;;;20.55;14.98;;;;;;;5.23;76.65;98439.22;4986908;28;20034;-74
2021/12/26 11:27:44;;;;;;;22.25;16.15;;;;;;;5.24;76.42;98440.91;4988140;28;20037;-75